Time;durP1;ratioP1;P1;durP2;ratioP2;P2;SDS_P1;SDS_P2;PMS_P1;PMS_P2;Temp;Humidity;BMP_temperature;BMP_pressure;BME280_temperature;BME280_humidity;BME280_pressure;Samples;Min_cycle;Max_cycle;Signal;HPM_P1;HPM_P2
2023/06/01 00:00:15;;;;;;;;;;;;;;;;;;5051934;28;19924;-78
2023/06/01 00:02:42;;;;;;;;;;;;;;;;;;5063747;28;20419;-78
2023/06/01 00:05:09;;;;;;;;;;;;;;;;;;5070098;28;19982;-77
2023/06/01 00:07:38;;;;;;;;;;;;;;;;;;5063588;28;20313;-77
2023/06/01 00:10:05;;;;;;;;;;;;;;;;;;5056903;28;19925;-78
2023/06/01 00:12:32;;;;;;;;;;;;;;;;;;5055778;28;20023;-78
2023/06/01 00:14:59;;;;;;;;;;;;;;;;;;5055076;28;19925;-77
2023/06/01 00:17:28;;;;;;;;;;;;;;;;;;5054049;28;19935;-77
2023/06/01 00:19:55;;;;;;;;;;;;;;;;;;5051488;28;19925;-78
2023/06/01 00:22:23;;;;;;;;;;;;;;;;;;5067621;28;20008;-77
2023/06/01 00:24:50;;;;;;;;;;;;;;;;;;5070906;28;19986;-77
2023/06/01 00:27:17;;;;;;;;;;;;;;;;;;5054166;28;19924;-77
2023/06/01 00:29:44;;;;;;;;;;;;;;;;;;5059765;28;19968;-78
2023/06/01 00:32:11;;;;;;;;;;;;;;;;;;5056287;28;20373;-78
2023/06/01 00:34:38;;;;;;;;;;;;;;;;;;5060564;28;19946;-77
2023/06/01 00:37:05;;;;;;;;;;;;;;;;;;5061148;28;20008;-78
2023/06/01 00:39:32;;;;;;;;;;;;;;;;;;5060037;28;19960;-78
2023/06/01 00:42:00;;;;;;;;;;;;;;;;;;5062453;28;19924;-77
2023/06/01 00:44:27;;;;;;;;;;;;;;;;;;5065037;28;19935;-78
2023/06/01 00:46:53;;;;;;;;;;;;;;;;;;5060462;28;19929;-78
2023/06/01 00:49:20;;;;;;;;;;;;;;;;;;5058904;28;20354;-77
2023/06/01 00:51:47;;;;;;;;;;;;;;;;;;5061498;28;19956;-78
2023/06/01 00:54:15;;;;;;;;;;;;;;;;;;5062735;28;19968;-78
2023/06/01 00:56:42;;;;;;;;;;;;;;;;;;5061886;28;19971;-78
2023/06/01 00:59:09;;;;;;;;;;;;;;;;;;5052951;28;20019;-77
2023/06/01 01:01:36;;;;;;;;;;;;;;;;;;5059085;28;19971;-77
2023/06/01 01:04:03;;;;;;;;;;;;;;;;;;5054613;28;19967;-77
2023/06/01 01:06:30;;;;;;;;;;;;;;;;;;5059167;28;19978;-76
2023/06/01 01:08:57;;;;;;;;;;;;;;;;;;5072838;28;20015;-77
2023/06/01 01:11:24;;;;;;;;;;;;;;;;;;5054701;28;19931;-76
2023/06/01 01:13:51;;;;;;;;;;;;;;;;;;5055089;28;20388;-77
2023/06/01 01:16:18;;;;;;;;;;;;;;;;;;5055861;28;20375;-77
2023/06/01 01:18:45;;;;;;;;;;;;;;;;;;5058648;28;19933;-77
2023/06/01 01:21:27;;;;;;;;;;;;;;;;;;5055175;28;19924;-78
2023/06/01 01:23:58;;;;;;;;;;;;;;;;;;5055507;28;19931;-78
2023/06/01 01:26:25;;;;;;;;;;;;;;;;;;5070977;28;20003;-78
2023/06/01 01:28:52;;;;;;;;;;;;;;;;;;5059095;28;20331;-78
2023/06/01 01:31:19;;;;;;;;;;;;;;;;;;5054814;28;20352;-77
2023/06/01 01:33:46;;;;;;;;;;;;;;;;;;5054807;28;19929;-82
2023/06/01 01:36:13;;;;;;;;;;;;;;;;;;5056405;28;20020;-82
2023/06/01 01:38:40;;;;;;;;;;;;;;;;;;5054589;28;19933;-82
2023/06/01 01:41:07;;;;;;;;;;;;;;;;;;5053712;28;20388;-82
2023/06/01 01:43:34;;;;;;;;;;;;;;;;;;5056417;28;19929;-82
2023/06/01 01:46:01;;;;;;;;;;;;;;;;;;5057289;28;20399;-82
2023/06/01 01:48:28;;;;;;;;;;;;;;;;;;5056976;28;19924;-80
2023/06/01 01:50:56;;;;;;;;;;;;;;;;;;5053357;28;19925;-80
2023/06/01 01:53:23;;;;;;;;;;;;;;;;;;5053992;28;19933;-80
2023/06/01 01:55:50;;;;;;;;;;;;;;;;;;5053622;28;19933;-79
2023/06/01 01:58:17;;;;;;;;;;;;;;;;;;5053007;28;20019;-80
2023/06/01 02:00:44;;;;;;;;;;;;;;;;;;5052128;28;20003;-79
2023/06/01 02:03:12;;;;;;;;;;;;;;;;;;5053428;28;20028;-79
2023/06/01 02:05:39;;;;;;;;;;;;;;;;;;5052120;28;20371;-79
2023/06/01 02:08:06;;;;;;;;;;;;;;;;;;5063719;28;19960;-79
2023/06/01 02:10:33;;;;;;;;;;;;;;;;;;5053515;28;19925;-79
2023/06/01 02:13:00;;;;;;;;;;;;;;;;;;5064387;28;20007;-79
2023/06/01 02:15:27;;;;;;;;;;;;;;;;;;5053516;28;19925;-80
2023/06/01 02:17:54;;;;;;;;;;;;;;;;;;5052628;28;19925;-80
2023/06/01 02:20:21;;;;;;;;;;;;;;;;;;5053814;28;19931;-81
2023/06/01 02:22:48;;;;;;;;;;;;;;;;;;5055252;28;19975;-80
2023/06/01 02:25:15;;;;;;;;;;;;;;;;;;5057663;28;19931;-81
2023/06/01 02:27:42;;;;;;;;;;;;;;;;;;5053851;28;19933;-80
2023/06/01 02:30:09;;;;;;;;;;;;;;;;;;5053871;28;20004;-79
2023/06/01 02:32:37;;;;;;;;;;;;;;;;;;5053633;28;20310;-79
2023/06/01 02:35:05;;;;;;;;;;;;;;;;;;5056879;28;19924;-79
2023/06/01 02:37:32;;;;;;;;;;;;;;;;;;5054892;28;19964;-80
2023/06/01 02:39:59;;;;;;;;;;;;;;;;;;5053407;28;20012;-79
2023/06/01 02:42:26;;;;;;;;;;;;;;;;;;5058863;28;20011;-76
2023/06/01 02:44:53;;;;;;;;;;;;;;;;;;5053290;28;19979;-80
2023/06/01 02:47:20;;;;;;;;;;;;;;;;;;5059945;28;19925;-81
2023/06/01 02:49:47;;;;;;;;;;;;;;;;;;5058208;28;19924;-82
2023/06/01 02:52:14;;;;;;;;;;;;;;;;;;5060540;28;20024;-81
2023/06/01 02:54:41;;;;;;;;;;;;;;;;;;5061712;28;20015;-81
2023/06/01 02:57:08;;;;;;;;;;;;;;;;;;5041740;28;19925;-81
2023/06/01 02:59:35;;;;;;;;;;;;;;;;;;5053860;28;20370;-81
2023/06/01 03:02:02;;;;;;;;;;;;;;;;;;5048755;28;20008;-81
2023/06/01 03:04:32;;;;;;;;;;;;;;;;;;5062257;28;20015;-81
2023/06/01 03:07:01;;;;;;;;;;;;;;;;;;5051894;28;19931;-81
2023/06/01 03:09:27;;;;;;;;;;;;;;;;;;5053755;28;19929;-81
2023/06/01 03:11:54;;;;;;;;;;;;;;;;;;5055584;28;20031;-79
2023/06/01 03:14:21;;;;;;;;;;;;;;;;;;5070310;28;20450;-80
2023/06/01 03:16:48;;;;;;;;;;;;;;;;;;5055264;28;19983;-79
2023/06/01 03:19:15;;;;;;;;;;;;;;;;;;5053348;28;20011;-80
2023/06/01 03:21:42;;;;;;;;;;;;;;;;;;5052860;28;20011;-80
2023/06/01 03:24:11;;;;;;;;;;;;;;;;;;5066084;28;19932;-81
2023/06/01 03:26:38;;;;;;;;;;;;;;;;;;5044682;28;19987;-81
2023/06/01 03:29:05;;;;;;;;;;;;;;;;;;5066020;28;19928;-80
2023/06/01 03:31:34;;;;;;;;;;;;;;;;;;5060732;28;20015;-80
2023/06/01 03:34:01;;;;;;;;;;;;;;;;;;5067960;28;19924;-76
2023/06/01 03:36:28;;;;;;;;;;;;;;;;;;5053011;28;19962;-80
2023/06/01 03:38:55;;;;;;;;;;;;;;;;;;5053618;28;19929;-78
2023/06/01 03:41:23;;;;;;;;;;;;;;;;;;5052833;28;20492;-79
2023/06/01 03:43:50;;;;;;;;;;;;;;;;;;5053691;28;19924;-80
2023/06/01 03:46:17;;;;;;;;;;;;;;;;;;5052381;28;19925;-79
2023/06/01 03:48:44;;;;;;;;;;;;;;;;;;5053546;28;19931;-81
2023/06/01 03:51:11;;;;;;;;;;;;;;;;;;5043075;28;20439;-81
2023/06/01 03:53:38;;;;;;;;;;;;;;;;;;5052319;28;20328;-82
2023/06/01 03:56:05;;;;;;;;;;;;;;;;;;5053366;28;19928;-82
2023/06/01 03:58:32;;;;;;;;;;;;;;;;;;5053470;28;20012;-82
2023/06/01 04:01:00;;;;;;;;;;;;;;;;;;5052995;28;19956;-82
2023/06/01 04:03:27;;;;;;;;;;;;;;;;;;5053065;28;19932;-82
2023/06/01 04:05:59;;;;;;;;;;;;;;;;;;5053371;28;20408;-81
2023/06/01 04:08:26;;;;;;;;;;;;;;;;;;5052060;28;19932;-81
2023/06/01 04:10:53;;;;;;;;;;;;;;;;;;5049798;28;19924;-82
2023/06/01 04:13:20;;;;;;;;;;;;;;;;;;5051808;28;19976;-82
2023/06/01 04:15:47;;;;;;;;;;;;;;;;;;5050793;28;20418;-83
2023/06/01 04:18:14;;;;;;;;;;;;;;;;;;5052263;28;20313;-81
2023/06/01 04:20:41;;;;;;;;;;;;;;;;;;5055075;28;19967;-81
2023/06/01 04:23:08;;;;;;;;;;;;;;;;;;5074167;28;19932;-81
2023/06/01 04:25:36;;;;;;;;;;;;;;;;;;5051854;28;19928;-80
2023/06/01 04:28:03;;;;;;;;;;;;;;;;;;5048810;28;19971;-81
2023/06/01 04:30:30;;;;;;;;;;;;;;;;;;5054119;28;19924;-81
2023/06/01 04:32:57;;;;;;;;;;;;;;;;;;5063263;28;19924;-82
2023/06/01 04:35:24;;;;;;;;;;;;;;;;;;5041003;28;19931;-82
2023/06/01 04:37:51;;;;;;;;;;;;;;;;;;5065740;28;19924;-82
2023/06/01 04:40:18;;;;;;;;;;;;;;;;;;5063162;28;19975;-82
2023/06/01 04:42:48;;;;;;;;;;;;;;;;;;5055313;28;19928;-81
2023/06/01 04:45:15;;;;;;;;;;;;;;;;;;5058655;28;19990;-81
2023/06/01 04:47:44;;;;;;;;;;;;;;;;;;5055028;28;19928;-79
2023/06/01 04:50:11;;;;;;;;;;;;;;;;;;5056320;28;19925;-79
2023/06/01 04:52:38;;;;;;;;;;;;;;;;;;5054586;28;19925;-81
2023/06/01 04:55:05;;;;;;;;;;;;;;;;;;5043139;28;19959;-85
2023/06/01 04:57:34;;;;;;;;;;;;;;;;;;5069482;28;19924;-81
2023/06/01 05:00:04;;;;;;;;;;;;;;;;;;5051538;28;20020;-80
2023/06/01 05:02:31;;;;;;;;;;;;;;;;;;5063468;28;20402;-81
2023/06/01 05:04:59;;;;;;;;;;;;;;;;;;5074389;28;19925;-81
2023/06/01 05:07:26;;;;;;;;;;;;;;;;;;5071801;28;19982;-81
2023/06/01 05:09:53;;;;;;;;;;;;;;;;;;5074977;28;20008;-82
2023/06/01 05:12:20;;;;;;;;;;;;;;;;;;5062245;28;19979;-81
2023/06/01 05:14:47;;;;;;;;;;;;;;;;;;5053536;28;19986;-81
2023/06/01 05:17:14;;;;;;;;;;;;;;;;;;5053608;28;19968;-81
2023/06/01 05:19:41;;;;;;;;;;;;;;;;;;5056141;28;19947;-80
2023/06/01 05:22:08;;;;;;;;;;;;;;;;;;5068511;28;19925;-80
2023/06/01 05:24:35;;;;;;;;;;;;;;;;;;5046613;28;19929;-80
2023/06/01 05:27:02;;;;;;;;;;;;;;;;;;5048436;28;19991;-82
2023/06/01 05:29:29;;;;;;;;;;;;;;;;;;5054938;28;19964;-80
2023/06/01 05:31:57;;;;;;;;;;;;;;;;;;5063921;28;19960;-81
2023/06/01 05:34:24;;;;;;;;;;;;;;;;;;5039266;28;19928;-81
2023/06/01 05:36:51;;;;;;;;;;;;;;;;;;5055126;28;19971;-81
2023/06/01 05:39:19;;;;;;;;;;;;;;;;;;5054056;28;20015;-81
2023/06/01 05:41:46;;;;;;;;;;;;;;;;;;5055569;28;19925;-81
2023/06/01 05:44:13;;;;;;;;;;;;;;;;;;5065323;28;20003;-82
2023/06/01 05:46:40;;;;;;;;;;;;;;;;;;5056778;28;19971;-80
2023/06/01 05:49:07;;;;;;;;;;;;;;;;;;5054800;28;20023;-81
2023/06/01 05:51:37;;;;;;;;;;;;;;;;;;5054626;28;20007;-81
2023/06/01 05:54:04;;;;;;;;;;;;;;;;;;5052180;28;19947;-81
2023/06/01 05:56:31;;;;;;;;;;;;;;;;;;5054345;28;20376;-82
2023/06/01 05:59:01;;;;;;;;;;;;;;;;;;5054437;28;20298;-81
2023/06/01 06:01:28;;;;;;;;;;;;;;;;;;5054082;28;20383;-83
2023/06/01 06:03:57;;;;;;;;;;;;;;;;;;5054122;28;19925;-81
2023/06/01 06:06:25;;;;;;;;;;;;;;;;;;5049763;28;20020;-84
2023/06/01 06:08:52;;;;;;;;;;;;;;;;;;5052523;28;20294;-81
2023/06/01 06:11:19;;;;;;;;;;;;;;;;;;5051708;28;21362;-80
2023/06/01 06:13:46;;;;;;;;;;;;;;;;;;5052216;28;19929;-78
2023/06/01 06:16:13;;;;;;;;;;;;;;;;;;5052096;28;19956;-81
2023/06/01 06:18:40;;;;;;;;;;;;;;;;;;5052959;28;19951;-81
2023/06/01 06:21:07;;;;;;;;;;;;;;;;;;5052226;28;19924;-80
2023/06/01 06:23:35;;;;;;;;;;;;;;;;;;5054247;28;20617;-80
2023/06/01 06:26:02;;;;;;;;;;;;;;;;;;5053709;28;19968;-80
2023/06/01 06:28:29;;;;;;;;;;;;;;;;;;5052768;28;19925;-79
2023/06/01 06:30:56;;;;;;;;;;;;;;;;;;5054547;28;19928;-82
2023/06/01 06:33:24;;;;;;;;;;;;;;;;;;5054630;28;19925;-80
2023/06/01 06:35:51;;;;;;;;;;;;;;;;;;5053389;28;19960;-81
2023/06/01 06:38:18;;;;;;;;;;;;;;;;;;5054230;28;19945;-79
2023/06/01 06:40:45;;;;;;;;;;;;;;;;;;5056606;28;19978;-79
2023/06/01 06:43:13;;;;;;;;;;;;;;;;;;5060714;28;20443;-77
2023/06/01 06:45:40;;;;;;;;;;;;;;;;;;5050788;28;19925;-76
2023/06/01 06:48:07;;;;;;;;;;;;;;;;;;5051194;28;19948;-79
2023/06/01 06:50:35;;;;;;;;;;;;;;;;;;5053684;28;20568;-79
2023/06/01 06:53:03;;;;;;;;;;;;;;;;;;5034486;28;19925;-79
2023/06/01 06:55:30;;;;;;;;;;;;;;;;;;5046549;28;19931;-76
2023/06/01 06:57:57;;;;;;;;;;;;;;;;;;5053916;28;20028;-79
2023/06/01 07:00:25;;;;;;;;;;;;;;;;;;5052744;28;19939;-77
2023/06/01 07:02:52;;;;;;;;;;;;;;;;;;5049181;28;19925;-80
2023/06/01 07:05:20;;;;;;;;;;;;;;;;;;5052351;28;20015;-80
2023/06/01 07:07:47;;;;;;;;;;;;;;;;;;5049170;28;20015;-77
2023/06/01 07:10:14;;;;;;;;;;;;;;;;;;5051358;28;20399;-79
2023/06/01 07:12:41;;;;;;;;;;;;;;;;;;5045720;28;20019;-78
2023/06/01 07:15:08;;;;;;;;;;;;;;;;;;5047456;28;19932;-80
2023/06/01 07:17:35;;;;;;;;;;;;;;;;;;5049262;28;20383;-80
2023/06/01 07:20:02;;;;;;;;;;;;;;;;;;5051103;28;19932;-80
2023/06/01 07:22:29;;;;;;;;;;;;;;;;;;5052451;28;20332;-79
2023/06/01 07:24:56;;;;;;;;;;;;;;;;;;5049204;28;19932;-79
2023/06/01 07:27:24;;;;;;;;;;;;;;;;;;5058314;28;19925;-79
2023/06/01 07:29:54;;;;;;;;;;;;;;;;;;5061364;28;19924;-79
2023/06/01 07:32:21;;;;;;;;;;;;;;;;;;5051539;28;20301;-79
2023/06/01 07:34:48;;;;;;;;;;;;;;;;;;5051422;28;20017;-79
2023/06/01 07:37:15;;;;;;;;;;;;;;;;;;5046241;28;20240;-79
2023/06/01 07:39:42;;;;;;;;;;;;;;;;;;5041154;28;19925;-79
2023/06/01 07:42:09;;;;;;;;;;;;;;;;;;5054356;28;19952;-81
2023/06/01 07:44:36;;;;;;;;;;;;;;;;;;5054701;28;19932;-79
2023/06/01 07:47:03;;;;;;;;;;;;;;;;;;5054465;28;20011;-78
2023/06/01 07:49:30;;;;;;;;;;;;;;;;;;5049314;28;19936;-79
2023/06/01 07:51:58;;;;;;;;;;;;;;;;;;5052610;28;20024;-79
2023/06/01 07:54:25;;;;;;;;;;;;;;;;;;5050928;28;19948;-79
2023/06/01 07:56:53;;;;;;;;;;;;;;;;;;5051616;28;19925;-79
2023/06/01 07:59:21;;;;;;;;;;;;;;;;;;5051429;28;19951;-79
2023/06/01 08:01:48;;;;;;;;;;;;;;;;;;5048668;28;19963;-79
2023/06/01 08:04:16;;;;;;;;;;;;;;;;;;5050934;28;20387;-78
2023/06/01 08:06:43;;;;;;;;;;;;;;;;;;5055351;28;19929;-78
2023/06/01 08:09:10;;;;;;;;;;;;;;;;;;5053482;28;19971;-79
2023/06/01 08:11:37;;;;;;;;;;;;;;;;;;5050477;28;19990;-79
2023/06/01 08:14:07;;;;;;;;;;;;;;;;;;5048206;28;20008;-79
2023/06/01 08:16:34;;;;;;;;;;;;;;;;;;5051453;28;19929;-79
2023/06/01 08:19:01;;;;;;;;;;;;;;;;;;5057595;28;19925;-80
2023/06/01 08:21:28;;;;;;;;;;;;;;;;;;5049750;28;19931;-79
2023/06/01 08:23:55;;;;;;;;;;;;;;;;;;5049254;28;19925;-80
2023/06/01 08:26:22;;;;;;;;;;;;;;;;;;5051072;28;19929;-80
2023/06/01 08:28:51;;;;;;;;;;;;;;;;;;5050432;28;19932;-79
2023/06/01 08:31:18;;;;;;;;;;;;;;;;;;5041752;28;20351;-80
2023/06/01 08:33:45;;;;;;;;;;;;;;;;;;5048268;28;20028;-79
2023/06/01 08:36:12;;;;;;;;;;;;;;;;;;5057627;28;19932;-79
2023/06/01 08:38:39;;;;;;;;;;;;;;;;;;5048177;28;19925;-79
2023/06/01 08:41:06;;;;;;;;;;;;;;;;;;5057613;28;19967;-79
2023/06/01 08:43:33;;;;;;;;;;;;;;;;;;5043852;28;20412;-80
2023/06/01 08:46:00;;;;;;;;;;;;;;;;;;5050841;28;20272;-80
2023/06/01 08:48:27;;;;;;;;;;;;;;;;;;5051050;28;19928;-79
2023/06/01 08:50:55;;;;;;;;;;;;;;;;;;5050762;28;19924;-79
2023/06/01 08:53:22;;;;;;;;;;;;;;;;;;5048747;28;19929;-79
2023/06/01 08:55:49;;;;;;;;;;;;;;;;;;5051885;28;20027;-79
2023/06/01 08:58:16;;;;;;;;;;;;;;;;;;5056935;28;20062;-79
2023/06/01 09:00:43;;;;;;;;;;;;;;;;;;5054309;28;19929;-79
2023/06/01 09:03:11;;;;;;;;;;;;;;;;;;5048284;28;19925;-79
2023/06/01 09:05:38;;;;;;;;;;;;;;;;;;5053933;28;19940;-79
2023/06/01 09:08:05;;;;;;;;;;;;;;;;;;5053273;28;19994;-79
2023/06/01 09:10:32;;;;;;;;;;;;;;;;;;5051693;28;20045;-78
2023/06/01 09:13:00;;;;;;;;;;;;;;;;;;5057777;28;20011;-79
2023/06/01 09:15:27;;;;;;;;;;;;;;;;;;5048919;28;19933;-78
2023/06/01 09:17:55;;;;;;;;;;;;;;;;;;5043207;28;19967;-79
2023/06/01 09:20:22;;;;;;;;;;;;;;;;;;5056241;28;20302;-81
2023/06/01 09:22:49;;;;;;;;;;;;;;;;;;5071004;28;20291;-79
2023/06/01 09:25:16;;;;;;;;;;;;;;;;;;5051441;28;19974;-79
2023/06/01 09:27:43;;;;;;;;;;;;;;;;;;5049888;28;20391;-80
2023/06/01 09:30:10;;;;;;;;;;;;;;;;;;5050060;28;20367;-81
2023/06/01 09:32:37;;;;;;;;;;;;;;;;;;5059059;28;19982;-79
2023/06/01 09:35:07;;;;;;;;;;;;;;;;;;5051993;28;19964;-79
2023/06/01 09:37:34;;;;;;;;;;;;;;;;;;5052370;28;19968;-79
2023/06/01 09:40:01;;;;;;;;;;;;;;;;;;5051417;28;19925;-79
2023/06/01 09:42:28;;;;;;;;;;;;;;;;;;5048443;28;19931;-79
2023/06/01 09:44:55;;;;;;;;;;;;;;;;;;5049452;28;19959;-81
2023/06/01 09:47:22;;;;;;;;;;;;;;;;;;5053090;28;19925;-80
2023/06/01 09:49:49;;;;;;;;;;;;;;;;;;5053277;28;19940;-80
2023/06/01 09:52:16;;;;;;;;;;;;;;;;;;5055838;28;19971;-80
2023/06/01 09:54:44;;;;;;;;;;;;;;;;;;5053927;28;19924;-80
2023/06/01 09:57:13;;;;;;;;;;;;;;;;;;5053609;28;20412;-78
2023/06/01 09:59:40;;;;;;;;;;;;;;;;;;5049219;28;20288;-79
2023/06/01 10:02:07;;;;;;;;;;;;;;;;;;5053253;28;20008;-80
2023/06/01 10:04:34;;;;;;;;;;;;;;;;;;5047661;28;20039;-81
2023/06/01 10:07:01;;;;;;;;;;;;;;;;;;5054166;28;20426;-80
2023/06/01 10:09:28;;;;;;;;;;;;;;;;;;5055051;28;19925;-80
2023/06/01 10:11:55;;;;;;;;;;;;;;;;;;5063319;28;19933;-80
2023/06/01 10:14:22;;;;;;;;;;;;;;;;;;5054765;28;20302;-81
2023/06/01 10:16:49;;;;;;;;;;;;;;;;;;5050712;28;20011;-77
2023/06/01 10:19:16;;;;;;;;;;;;;;;;;;5048389;28;20007;-80
2023/06/01 10:21:44;;;;;;;;;;;;;;;;;;5052357;28;19931;-81
2023/06/01 10:24:11;;;;;;;;;;;;;;;;;;5053394;28;19999;-81
2023/06/01 10:26:38;;;;;;;;;;;;;;;;;;5054238;28;20550;-82
2023/06/01 10:29:05;;;;;;;;;;;;;;;;;;5054081;28;19990;-81
2023/06/01 10:31:32;;;;;;;;;;;;;;;;;;5054329;28;20008;-80
2023/06/01 10:33:59;;;;;;;;;;;;;;;;;;5052751;28;20027;-82
2023/06/01 10:36:27;;;;;;;;;;;;;;;;;;5054041;28;19971;-81
2023/06/01 10:38:54;;;;;;;;;;;;;;;;;;5054657;28;19925;-82
2023/06/01 10:41:22;;;;;;;;;;;;;;;;;;5053050;28;20024;-80
2023/06/01 10:43:49;;;;;;;;;;;;;;;;;;5053730;28;19929;-82
2023/06/01 10:46:16;;;;;;;;;;;;;;;;;;5052648;28;20023;-82
2023/06/01 10:48:43;;;;;;;;;;;;;;;;;;5051442;28;20022;-82
2023/06/01 10:51:10;;;;;;;;;;;;;;;;;;5052096;28;19931;-82
2023/06/01 10:53:37;;;;;;;;;;;;;;;;;;5054026;28;20028;-81
2023/06/01 10:56:04;;;;;;;;;;;;;;;;;;5049446;28;19967;-82
2023/06/01 10:58:31;;;;;;;;;;;;;;;;;;5050170;28;20008;-81
2023/06/01 11:00:58;;;;;;;;;;;;;;;;;;5052343;28;20372;-80
2023/06/01 11:03:25;;;;;;;;;;;;;;;;;;5042093;28;20352;-82
2023/06/01 11:05:52;;;;;;;;;;;;;;;;;;5050988;28;20003;-82
2023/06/01 11:08:19;;;;;;;;;;;;;;;;;;5054931;28;19972;-81
2023/06/01 11:10:46;;;;;;;;;;;;;;;;;;5051587;28;19929;-82
2023/06/01 11:13:17;;;;;;;;;;;;;;;;;;5050095;28;19932;-83
2023/06/01 11:15:44;;;;;;;;;;;;;;;;;;5051124;28;20059;-82
2023/06/01 11:18:11;;;;;;;;;;;;;;;;;;5052411;28;19978;-82
2023/06/01 11:20:39;;;;;;;;;;;;;;;;;;5051523;28;20118;-82
2023/06/01 11:23:07;;;;;;;;;;;;;;;;;;5052237;28;19933;-82
2023/06/01 11:25:34;;;;;;;;;;;;;;;;;;5052231;28;19925;-81
2023/06/01 11:28:01;;;;;;;;;;;;;;;;;;5050775;28;19956;-81
2023/06/01 11:30:28;;;;;;;;;;;;;;;;;;5051235;28;19925;-82
2023/06/01 11:32:55;;;;;;;;;;;;;;;;;;5053719;28;20007;-82
2023/06/01 11:35:22;;;;;;;;;;;;;;;;;;5050294;28;19925;-82
2023/06/01 11:37:49;;;;;;;;;;;;;;;;;;5050530;28;19925;-81
2023/06/01 11:40:16;;;;;;;;;;;;;;;;;;5052971;28;20015;-82
2023/06/01 11:42:43;;;;;;;;;;;;;;;;;;5055500;28;20000;-81
2023/06/01 11:45:11;;;;;;;;;;;;;;;;;;5058434;28;19988;-80
2023/06/01 11:47:38;;;;;;;;;;;;;;;;;;5053772;28;19929;-82
2023/06/01 11:50:05;;;;;;;;;;;;;;;;;;5053338;28;19925;-82
2023/06/01 11:52:32;;;;;;;;;;;;;;;;;;5051706;28;19964;-82
2023/06/01 11:54:59;;;;;;;;;;;;;;;;;;5051238;28;20455;-81
2023/06/01 11:57:26;;;;;;;;;;;;;;;;;;5048026;28;20035;-82
2023/06/01 11:59:53;;;;;;;;;;;;;;;;;;5045171;28;20016;-81
2023/06/01 12:02:21;;;;;;;;;;;;;;;;;;5051574;28;20323;-81
2023/06/01 12:04:48;;;;;;;;;;;;;;;;;;5045546;28;19925;-81
2023/06/01 12:07:16;;;;;;;;;;;;;;;;;;5052158;28;19928;-82
2023/06/01 12:09:43;;;;;;;;;;;;;;;;;;5055683;28;20017;-80
2023/06/01 12:12:11;;;;;;;;;;;;;;;;;;5049324;28;19925;-80
2023/06/01 12:14:38;;;;;;;;;;;;;;;;;;5055347;28;20008;-80
2023/06/01 12:17:06;;;;;;;;;;;;;;;;;;5046801;28;19932;-82
2023/06/01 12:19:33;;;;;;;;;;;;;;;;;;5052961;28;20398;-80
2023/06/01 12:22:00;;;;;;;;;;;;;;;;;;5051413;28;20398;-81
2023/06/01 12:24:28;;;;;;;;;;;;;;;;;;5053187;28;20054;-81
2023/06/01 12:26:55;;;;;;;;;;;;;;;;;;5052337;28;19924;-82
2023/06/01 12:29:23;;;;;;;;;;;;;;;;;;5052191;28;20368;-81
2023/06/01 12:31:50;;;;;;;;;;;;;;;;;;5057296;28;20016;-81
2023/06/01 12:34:18;;;;;;;;;;;;;;;;;;5051609;28;19959;-81
2023/06/01 12:36:45;;;;;;;;;;;;;;;;;;5057166;28;20329;-81
2023/06/01 12:39:12;;;;;;;;;;;;;;;;;;5051829;28;19971;-82
2023/06/01 12:41:39;;;;;;;;;;;;;;;;;;5050655;28;19928;-81
2023/06/01 12:44:06;;;;;;;;;;;;;;;;;;5058597;28;19970;-81
2023/06/01 12:46:35;;;;;;;;;;;;;;;;;;5050957;28;19976;-81
2023/06/01 12:49:02;;;;;;;;;;;;;;;;;;5057699;28;19925;-82
2023/06/01 12:51:29;;;;;;;;;;;;;;;;;;5053011;28;19986;-82
2023/06/01 12:53:56;;;;;;;;;;;;;;;;;;5052315;28;20391;-83
2023/06/01 12:56:23;;;;;;;;;;;;;;;;;;5055835;28;19980;-82
2023/06/01 12:58:51;;;;;;;;;;;;;;;;;;5055615;28;19924;-82
2023/06/01 13:01:18;;;;;;;;;;;;;;;;;;5052788;28;19932;-81
2023/06/01 13:03:45;;;;;;;;;;;;;;;;;;5053642;28;20449;-81
2023/06/01 13:06:12;;;;;;;;;;;;;;;;;;5047496;28;20380;-83
2023/06/01 13:08:39;;;;;;;;;;;;;;;;;;5058548;28;19968;-82
2023/06/01 13:11:06;;;;;;;;;;;;;;;;;;5047024;28;19925;-80
2023/06/01 13:13:33;;;;;;;;;;;;;;;;;;5053619;28;19986;-79
2023/06/01 13:16:01;;;;;;;;;;;;;;;;;;5056179;28;19987;-79
2023/06/01 13:18:28;;;;;;;;;;;;;;;;;;5053480;28;20380;-79
2023/06/01 13:20:56;;;;;;;;;;;;;;;;;;5054652;28;20007;-78
2023/06/01 13:23:23;;;;;;;;;;;;;;;;;;5053420;28;19924;-79
2023/06/01 13:25:50;;;;;;;;;;;;;;;;;;5053904;28;19975;-81
2023/06/01 13:28:17;;;;;;;;;;;;;;;;;;5058048;28;19956;-81
2023/06/01 13:30:44;;;;;;;;;;;;;;;;;;5054915;28;19929;-80
2023/06/01 13:33:12;;;;;;;;;;;;;;;;;;5053975;28;19972;-80
2023/06/01 13:35:39;;;;;;;;;;;;;;;;;;5059492;28;19975;-82
2023/06/01 13:38:06;;;;;;;;;;;;;;;;;;5045523;28;19925;-82
2023/06/01 13:40:33;;;;;;;;;;;;;;;;;;5053414;28;19925;-76
2023/06/01 13:43:00;;;;;;;;;;;;;;;;;;5054684;28;19984;-79
2023/06/01 13:45:27;;;;;;;;;;;;;;;;;;5055218;28;20015;-81
2023/06/01 13:47:55;;;;;;;;;;;;;;;;;;5053261;28;20380;-81
2023/06/01 13:50:22;;;;;;;;;;;;;;;;;;5053563;28;20375;-81
2023/06/01 13:52:49;;;;;;;;;;;;;;;;;;5053552;28;19960;-80
2023/06/01 13:55:17;;;;;;;;;;;;;;;;;;5055584;28;20019;-82
2023/06/01 13:57:44;;;;;;;;;;;;;;;;;;5047252;28;19956;-83
2023/06/01 14:00:11;;;;;;;;;;;;;;;;;;5049241;28;19925;-81
2023/06/01 14:02:38;;;;;;;;;;;;;;;;;;5054470;28;20031;-83
2023/06/01 14:05:05;;;;;;;;;;;;;;;;;;5052569;28;20415;-81
2023/06/01 14:07:32;;;;;;;;;;;;;;;;;;5048616;28;20443;-82
2023/06/01 14:10:00;;;;;;;;;;;;;;;;;;5042158;28;20273;-83
2023/06/01 14:12:27;;;;;;;;;;;;;;;;;;5052957;28;19932;-81
2023/06/01 14:14:54;;;;;;;;;;;;;;;;;;5051904;28;20007;-81
2023/06/01 14:17:21;;;;;;;;;;;;;;;;;;5045454;28;20430;-81
2023/06/01 14:19:47;;;;;;;;;;;;;;;;;;5052533;28;20003;-82
2023/06/01 14:22:14;;;;;;;;;;;;;;;;;;5049594;28;20004;-82
2023/06/01 14:24:41;;;;;;;;;;;;;;;;;;5039846;28;20005;-76
2023/06/01 14:27:08;;;;;;;;;;;;;;;;;;5052770;28;20001;-81
2023/06/01 14:29:36;;;;;;;;;;;;;;;;;;5052916;28;19937;-78
2023/06/01 14:32:03;;;;;;;;;;;;;;;;;;5038256;28;19968;-81
2023/06/01 14:34:30;;;;;;;;;;;;;;;;;;5043247;28;19925;-77
2023/06/01 14:36:57;;;;;;;;;;;;;;;;;;5042438;28;19986;-79
2023/06/01 14:39:25;;;;;;;;;;;;;;;;;;5053127;28;20360;-82
2023/06/01 14:41:52;;;;;;;;;;;;;;;;;;5068552;22;20097;-82
2023/06/01 14:44:19;;;;;;;;;;;;;;;;;;5072393;28;19924;-83
2023/06/01 14:46:46;;;;;;;;;;;;;;;;;;5071577;28;19924;-83
2023/06/01 14:49:13;;;;;;;;;;;;;;;;;;5069320;28;20019;-81
2023/06/01 14:51:40;;;;;;;;;;;;;;;;;;5073444;28;19933;-78
2023/06/01 14:54:07;;;;;;;;;;;;;;;;;;5075691;28;19924;-82
2023/06/01 14:56:34;;;;;;;;;;;;;;;;;;5073070;28;19925;-82
2023/06/01 14:59:01;;;;;;;;;;;;;;;;;;5072733;28;19924;-83
2023/06/01 15:01:28;;;;;;;;;;;;;;;;;;5070355;28;20060;-81
2023/06/01 15:03:55;;;;;;;;;;;;;;;;;;5070648;28;20450;-82
2023/06/01 15:06:22;;;;;;;;;;;;;;;;;;5073238;28;20356;-82
2023/06/01 15:08:49;;;;;;;;;;;;;;;;;;5071735;28;19972;-82
2023/06/01 15:11:16;;;;;;;;;;;;;;;;;;5087030;28;20028;-83
2023/06/01 15:13:43;;;;;;;;;;;;;;;;;;5077823;28;19939;-82
2023/06/01 15:16:10;;;;;;;;;;;;;;;;;;5072681;28;20445;-82
2023/06/01 15:18:37;;;;;;;;;;;;;;;;;;5071371;28;19935;-83
2023/06/01 15:21:05;;;;;;;;;;;;;;;;;;5069101;28;19924;-82
2023/06/01 15:23:32;;;;;;;;;;;;;;;;;;5071581;28;20394;-81
2023/06/01 15:25:59;;;;;;;;;;;;;;;;;;5071858;28;19978;-82
2023/06/01 15:28:26;;;;;;;;;;;;;;;;;;5071105;28;19924;-83
2023/06/01 15:30:53;;;;;;;;;;;;;;;;;;5069400;28;19925;-83
2023/06/01 15:33:20;;;;;;;;;;;;;;;;;;5055382;28;20027;-82
2023/06/01 15:35:47;;;;;;;;;;;;;;;;;;5069663;28;19967;-80
2023/06/01 15:38:14;;;;;;;;;;;;;;;;;;5071950;28;19928;-82
2023/06/01 15:40:41;;;;;;;;;;;;;;;;;;5076359;28;20011;-81
2023/06/01 15:43:08;;;;;;;;;;;;;;;;;;5071242;28;20011;-81
2023/06/01 15:45:35;;;;;;;;;;;;;;;;;;5071521;28;19985;-82
2023/06/01 15:48:02;;;;;;;;;;;;;;;;;;5077522;28;19924;-82
2023/06/01 15:50:29;;;;;;;;;;;;;;;;;;5070431;28;20014;-82
2023/06/01 15:52:56;;;;;;;;;;;;;;;;;;5071015;28;19928;-81
2023/06/01 15:55:23;;;;;;;;;;;;;;;;;;5090617;28;19932;-82
2023/06/01 15:57:50;;;;;;;;;;;;;;;;;;5080817;28;19956;-82
2023/06/01 16:00:17;;;;;;;;;;;;;;;;;;5072060;28;19946;-80
2023/06/01 16:02:44;;;;;;;;;;;;;;;;;;5066406;28;19956;-82
2023/06/01 16:05:11;;;;;;;;;;;;;;;;;;5063845;28;19924;-82
2023/06/01 16:07:38;;;;;;;;;;;;;;;;;;5064123;28;20455;-82
2023/06/01 16:10:05;;;;;;;;;;;;;;;;;;5071020;28;20027;-82
2023/06/01 16:12:32;;;;;;;;;;;;;;;;;;5072714;28;19924;-82
2023/06/01 16:14:59;;;;;;;;;;;;;;;;;;5075019;28;19963;-82
2023/06/01 16:17:26;;;;;;;;;;;;;;;;;;5077613;28;19947;-81
2023/06/01 16:19:53;;;;;;;;;;;;;;;;;;5072526;28;19925;-82
2023/06/01 16:22:21;;;;;;;;;;;;;;;;;;5070731;28;19963;-82
2023/06/01 16:24:48;;;;;;;;;;;;;;;;;;5068394;28;20375;-81
2023/06/01 16:27:15;;;;;;;;;;;;;;;;;;5064302;28;19928;-82
2023/06/01 16:29:42;;;;;;;;;;;;;;;;;;5066510;28;20067;-82
2023/06/01 16:32:09;;;;;;;;;;;;;;;;;;5067077;28;19981;-82
2023/06/01 16:34:36;;;;;;;;;;;;;;;;;;5065690;28;20158;-81
2023/06/01 16:37:03;;;;;;;;;;;;;;;;;;5066710;28;19947;-81
2023/06/01 16:39:31;;;;;;;;;;;;;;;;;;5076011;28;19977;-82
2023/06/01 16:41:58;;;;;;;;;;;;;;;;;;5083785;28;19938;-83
2023/06/01 16:44:25;;;;;;;;;;;;;;;;;;5076057;28;20446;-83